sensor_id;sensor_type;location;lat;lon;timestamp;P1;durP1;ratioP1;P2;durP2;ratioP2
56680;SDS011;42558;52.388;13.390;2023-07-20T00:01:31;16.15;;;8.74;;
56680;SDS011;42558;52.388;13.390;2023-07-20T00:03:59;12.73;;;9.31;;
56680;SDS011;42558;52.388;13.390;2023-07-20T00:06:27;15.96;;;9.88;;
56680;SDS011;42558;52.388;13.390;2023-07-20T00:08:56;12.73;;;9.69;;
56680;SDS011;42558;52.388;13.390;2023-07-20T00:11:26;15.20;;;11.40;;
56680;SDS011;42558;52.388;13.390;2023-07-20T00:13:55;20.33;;;17.29;;
56680;SDS011;42558;52.388;13.390;2023-07-20T00:16:24;32.30;;;26.98;;
56680;SDS011;42558;52.388;13.390;2023-07-20T00:18:52;32.30;;;26.41;;
56680;SDS011;42558;52.388;13.390;2023-07-20T00:21:21;35.34;;;30.02;;
56680;SDS011;42558;52.388;13.390;2023-07-20T00:23:49;32.68;;;29.26;;
56680;SDS011;42558;52.388;13.390;2023-07-20T00:26:17;31.73;;;28.12;;
56680;SDS011;42558;52.388;13.390;2023-07-20T00:28:46;32.30;;;26.60;;
56680;SDS011;42558;52.388;13.390;2023-07-20T00:31:14;28.31;;;23.75;;
56680;SDS011;42558;52.388;13.390;2023-07-20T00:33:43;23.18;;;19.00;;
56680;SDS011;42558;52.388;13.390;2023-07-20T00:36:11;18.05;;;15.01;;
56680;SDS011;42558;52.388;13.390;2023-07-20T00:38:39;17.67;;;15.01;;
56680;SDS011;42558;52.388;13.390;2023-07-20T00:41:08;16.91;;;13.68;;
56680;SDS011;42558;52.388;13.390;2023-07-20T00:43:36;19.38;;;15.01;;
56680;SDS011;42558;52.388;13.390;2023-07-20T00:46:05;15.96;;;12.73;;
56680;SDS011;42558;52.388;13.390;2023-07-20T00:48:33;17.86;;;13.30;;
56680;SDS011;42558;52.388;13.390;2023-07-20T00:51:02;17.48;;;12.73;;
56680;SDS011;42558;52.388;13.390;2023-07-20T00:53:30;17.48;;;12.35;;
56680;SDS011;42558;52.388;13.390;2023-07-20T00:55:58;18.81;;;13.11;;
56680;SDS011;42558;52.388;13.390;2023-07-20T00:58:27;15.77;;;12.54;;
56680;SDS011;42558;52.388;13.390;2023-07-20T01:00:55;19.76;;;12.73;;
56680;SDS011;42558;52.388;13.390;2023-07-20T01:03:24;16.34;;;11.78;;
56680;SDS011;42558;52.388;13.390;2023-07-20T01:06:08;15.20;;;12.92;;
56680;SDS011;42558;52.388;13.390;2023-07-20T01:12:05;19.19;;;13.11;;
56680;SDS011;42558;52.388;13.390;2023-07-20T01:14:38;13.87;;;11.78;;
56680;SDS011;42558;52.388;13.390;2023-07-20T01:17:08;17.29;;;12.35;;
56680;SDS011;42558;52.388;13.390;2023-07-20T01:19:38;15.20;;;12.92;;
56680;SDS011;42558;52.388;13.390;2023-07-20T01:22:30;16.91;;;11.40;;
56680;SDS011;42558;52.388;13.390;2023-07-20T01:31:10;14.44;;;11.97;;
56680;SDS011;42558;52.388;13.390;2023-07-20T01:33:44;13.87;;;11.02;;
56680;SDS011;42558;52.388;13.390;2023-07-20T01:36:17;16.91;;;11.78;;
56680;SDS011;42558;52.388;13.390;2023-07-20T01:38:49;15.77;;;11.78;;
56680;SDS011;42558;52.388;13.390;2023-07-20T01:41:21;14.82;;;12.35;;
56680;SDS011;42558;52.388;13.390;2023-07-20T01:43:51;15.20;;;12.54;;
56680;SDS011;42558;52.388;13.390;2023-07-20T01:46:21;18.81;;;13.68;;
56680;SDS011;42558;52.388;13.390;2023-07-20T01:48:52;19.19;;;14.63;;
56680;SDS011;42558;52.388;13.390;2023-07-20T01:51:22;19.19;;;14.06;;
56680;SDS011;42558;52.388;13.390;2023-07-20T01:53:51;19.57;;;13.49;;
56680;SDS011;42558;52.388;13.390;2023-07-20T01:56:19;18.24;;;12.92;;
56680;SDS011;42558;52.388;13.390;2023-07-20T01:58:48;19.19;;;13.87;;
56680;SDS011;42558;52.388;13.390;2023-07-20T02:01:16;18.81;;;14.25;;
56680;SDS011;42558;52.388;13.390;2023-07-20T02:03:44;16.53;;;14.63;;
56680;SDS011;42558;52.388;13.390;2023-07-20T02:06:13;16.53;;;14.82;;
56680;SDS011;42558;52.388;13.390;2023-07-20T02:08:41;20.33;;;14.82;;
56680;SDS011;42558;52.388;13.390;2023-07-20T02:11:10;18.43;;;14.82;;
56680;SDS011;42558;52.388;13.390;2023-07-20T02:13:38;16.72;;;14.06;;
56680;SDS011;42558;52.388;13.390;2023-07-20T02:16:07;24.89;;;16.34;;
56680;SDS011;42558;52.388;13.390;2023-07-20T02:18:35;20.52;;;14.44;;
56680;SDS011;42558;52.388;13.390;2023-07-20T02:21:03;19.38;;;15.77;;
56680;SDS011;42558;52.388;13.390;2023-07-20T02:23:32;18.24;;;14.82;;
56680;SDS011;42558;52.388;13.390;2023-07-20T02:26:00;21.85;;;14.06;;
56680;SDS011;42558;52.388;13.390;2023-07-20T02:28:29;19.57;;;15.96;;
56680;SDS011;42558;52.388;13.390;2023-07-20T02:30:57;24.70;;;14.82;;
56680;SDS011;42558;52.388;13.390;2023-07-20T02:33:26;17.48;;;14.25;;
56680;SDS011;42558;52.388;13.390;2023-07-20T02:35:54;18.05;;;14.63;;
56680;SDS011;42558;52.388;13.390;2023-07-20T02:38:22;20.90;;;13.68;;
56680;SDS011;42558;52.388;13.390;2023-07-20T02:40:51;18.05;;;15.01;;
56680;SDS011;42558;52.388;13.390;2023-07-20T02:43:19;18.81;;;14.25;;
56680;SDS011;42558;52.388;13.390;2023-07-20T02:45:48;19.38;;;14.82;;
56680;SDS011;42558;52.388;13.390;2023-07-20T02:48:20;18.05;;;13.87;;
56680;SDS011;42558;52.388;13.390;2023-07-20T02:50:49;17.67;;;13.11;;
56680;SDS011;42558;52.388;13.390;2023-07-20T02:53:19;19.19;;;14.44;;
56680;SDS011;42558;52.388;13.390;2023-07-20T02:55:49;16.15;;;14.44;;
56680;SDS011;42558;52.388;13.390;2023-07-20T02:58:19;18.62;;;15.01;;
56680;SDS011;42558;52.388;13.390;2023-07-20T03:00:49;17.29;;;13.49;;
56680;SDS011;42558;52.388;13.390;2023-07-20T03:03:19;16.53;;;14.82;;
56680;SDS011;42558;52.388;13.390;2023-07-20T03:05:50;17.67;;;13.49;;
56680;SDS011;42558;52.388;13.390;2023-07-20T03:08:24;20.71;;;13.49;;
56680;SDS011;42558;52.388;13.390;2023-07-20T03:10:54;17.86;;;12.73;;
56680;SDS011;42558;52.388;13.390;2023-07-20T03:13:24;20.52;;;14.06;;
56680;SDS011;42558;52.388;13.390;2023-07-20T03:15:53;17.29;;;14.44;;
56680;SDS011;42558;52.388;13.390;2023-07-20T03:18:23;16.72;;;14.82;;
56680;SDS011;42558;52.388;13.390;2023-07-20T03:20:53;19.00;;;15.96;;
56680;SDS011;42558;52.388;13.390;2023-07-20T03:23:23;20.71;;;15.20;;
56680;SDS011;42558;52.388;13.390;2023-07-20T03:25:53;21.28;;;15.96;;
56680;SDS011;42558;52.388;13.390;2023-07-20T03:28:24;24.13;;;15.96;;
56680;SDS011;42558;52.388;13.390;2023-07-20T03:30:56;16.72;;;14.25;;
56680;SDS011;42558;52.388;13.390;2023-07-20T03:33:28;17.48;;;14.82;;
56680;SDS011;42558;52.388;13.390;2023-07-20T03:35:59;18.05;;;14.82;;
56680;SDS011;42558;52.388;13.390;2023-07-20T03:38:29;19.95;;;16.53;;
56680;SDS011;42558;52.388;13.390;2023-07-20T03:41:00;21.28;;;17.10;;
56680;SDS011;42558;52.388;13.390;2023-07-20T03:43:30;19.57;;;16.53;;
56680;SDS011;42558;52.388;13.390;2023-07-20T03:46:00;23.94;;;17.86;;
56680;SDS011;42558;52.388;13.390;2023-07-20T03:48:30;20.14;;;18.05;;
56680;SDS011;42558;52.388;13.390;2023-07-20T03:51:00;17.10;;;15.20;;
56680;SDS011;42558;52.388;13.390;2023-07-20T03:53:30;20.14;;;17.67;;
56680;SDS011;42558;52.388;13.390;2023-07-20T03:56:00;20.90;;;15.96;;
56680;SDS011;42558;52.388;13.390;2023-07-20T03:58:30;25.08;;;18.81;;
56680;SDS011;42558;52.388;13.390;2023-07-20T04:01:01;21.47;;;16.91;;
56680;SDS011;42558;52.388;13.390;2023-07-20T04:03:31;22.61;;;18.43;;
56680;SDS011;42558;52.388;13.390;2023-07-20T04:06:01;28.69;;;19.38;;
56680;SDS011;42558;52.388;13.390;2023-07-20T04:08:31;21.66;;;18.24;;
56680;SDS011;42558;52.388;13.390;2023-07-20T04:11:02;25.08;;;20.33;;
56680;SDS011;42558;52.388;13.390;2023-07-20T04:13:32;27.74;;;21.66;;
56680;SDS011;42558;52.388;13.390;2023-07-20T04:16:05;26.03;;;20.33;;
56680;SDS011;42558;52.388;13.390;2023-07-20T04:18:35;26.41;;;19.57;;
56680;SDS011;42558;52.388;13.390;2023-07-20T04:21:03;23.18;;;19.19;;
56680;SDS011;42558;52.388;13.390;2023-07-20T04:23:31;25.27;;;20.52;;
56680;SDS011;42558;52.388;13.390;2023-07-20T04:26:00;27.74;;;22.42;;
56680;SDS011;42558;52.388;13.390;2023-07-20T04:28:28;28.88;;;22.42;;
56680;SDS011;42558;52.388;13.390;2023-07-20T04:31:09;26.41;;;20.71;;
56680;SDS011;42558;52.388;13.390;2023-07-20T04:33:41;30.78;;;22.42;;
56680;SDS011;42558;52.388;13.390;2023-07-20T04:36:11;31.16;;;25.27;;
56680;SDS011;42558;52.388;13.390;2023-07-20T04:38:42;29.64;;;23.37;;
56680;SDS011;42558;52.388;13.390;2023-07-20T04:41:12;26.03;;;21.47;;
56680;SDS011;42558;52.388;13.390;2023-07-20T04:43:42;29.45;;;20.90;;
56680;SDS011;42558;52.388;13.390;2023-07-20T04:46:12;29.83;;;22.23;;
56680;SDS011;42558;52.388;13.390;2023-07-20T04:48:42;25.27;;;21.09;;
56680;SDS011;42558;52.388;13.390;2023-07-20T04:51:12;37.43;;;24.89;;
56680;SDS011;42558;52.388;13.390;2023-07-20T04:53:42;25.65;;;19.57;;
56680;SDS011;42558;52.388;13.390;2023-07-20T04:56:13;31.92;;;24.51;;
56680;SDS011;42558;52.388;13.390;2023-07-20T04:58:43;27.74;;;23.18;;
56680;SDS011;42558;52.388;13.390;2023-07-20T05:01:12;30.78;;;24.32;;
56680;SDS011;42558;52.388;13.390;2023-07-20T05:03:43;28.12;;;22.42;;
56680;SDS011;42558;52.388;13.390;2023-07-20T05:06:13;22.04;;;18.24;;
56680;SDS011;42558;52.388;13.390;2023-07-20T05:08:43;27.17;;;22.04;;
56680;SDS011;42558;52.388;13.390;2023-07-20T05:11:13;24.89;;;20.71;;
56680;SDS011;42558;52.388;13.390;2023-07-20T05:13:43;26.60;;;20.14;;
56680;SDS011;42558;52.388;13.390;2023-07-20T05:16:13;18.43;;;14.82;;
56680;SDS011;42558;52.388;13.390;2023-07-20T05:18:42;25.65;;;19.76;;
56680;SDS011;42558;52.388;13.390;2023-07-20T05:21:13;27.93;;;19.57;;
56680;SDS011;42558;52.388;13.390;2023-07-20T05:23:42;24.70;;;20.52;;
56680;SDS011;42558;52.388;13.390;2023-07-20T05:26:13;24.32;;;19.38;;
56680;SDS011;42558;52.388;13.390;2023-07-20T05:28:42;21.47;;;17.86;;
56680;SDS011;42558;52.388;13.390;2023-07-20T05:31:12;21.66;;;17.10;;
56680;SDS011;42558;52.388;13.390;2023-07-20T05:33:42;22.04;;;17.86;;
56680;SDS011;42558;52.388;13.390;2023-07-20T05:36:12;22.42;;;17.67;;
56680;SDS011;42558;52.388;13.390;2023-07-20T05:38:42;21.47;;;17.10;;
56680;SDS011;42558;52.388;13.390;2023-07-20T05:41:12;16.15;;;14.25;;
56680;SDS011;42558;52.388;13.390;2023-07-20T05:43:42;18.43;;;16.53;;
56680;SDS011;42558;52.388;13.390;2023-07-20T05:46:19;19.00;;;13.87;;
56680;SDS011;42558;52.388;13.390;2023-07-20T05:48:48;18.05;;;14.44;;
56680;SDS011;42558;52.388;13.390;2023-07-20T05:51:18;19.19;;;14.44;;
56680;SDS011;42558;52.388;13.390;2023-07-20T05:53:48;19.95;;;15.39;;
56680;SDS011;42558;52.388;13.390;2023-07-20T05:56:18;16.91;;;13.11;;
56680;SDS011;42558;52.388;13.390;2023-07-20T05:58:48;15.58;;;12.92;;
56680;SDS011;42558;52.388;13.390;2023-07-20T06:01:18;17.67;;;12.54;;
56680;SDS011;42558;52.388;13.390;2023-07-20T06:03:48;17.67;;;12.54;;
56680;SDS011;42558;52.388;13.390;2023-07-20T06:06:18;16.15;;;12.16;;
56680;SDS011;42558;52.388;13.390;2023-07-20T06:08:49;16.53;;;13.68;;
56680;SDS011;42558;52.388;13.390;2023-07-20T06:11:19;18.62;;;12.54;;
56680;SDS011;42558;52.388;13.390;2023-07-20T06:13:48;16.72;;;14.82;;
56680;SDS011;42558;52.388;13.390;2023-07-20T06:16:18;19.00;;;14.25;;
56680;SDS011;42558;52.388;13.390;2023-07-20T06:18:48;18.24;;;16.34;;
56680;SDS011;42558;52.388;13.390;2023-07-20T06:21:18;17.48;;;14.44;;
56680;SDS011;42558;52.388;13.390;2023-07-20T06:23:48;17.10;;;14.06;;
56680;SDS011;42558;52.388;13.390;2023-07-20T06:26:18;19.76;;;14.25;;
56680;SDS011;42558;52.388;13.390;2023-07-20T06:28:49;18.62;;;13.49;;
56680;SDS011;42558;52.388;13.390;2023-07-20T06:31:19;15.77;;;14.25;;
56680;SDS011;42558;52.388;13.390;2023-07-20T06:33:49;19.38;;;14.06;;
56680;SDS011;42558;52.388;13.390;2023-07-20T06:36:19;18.24;;;14.82;;
56680;SDS011;42558;52.388;13.390;2023-07-20T06:38:50;17.48;;;14.25;;
56680;SDS011;42558;52.388;13.390;2023-07-20T06:41:22;17.86;;;13.68;;
56680;SDS011;42558;52.388;13.390;2023-07-20T06:43:55;13.30;;;11.97;;
56680;SDS011;42558;52.388;13.390;2023-07-20T06:46:28;16.91;;;12.92;;
56680;SDS011;42558;52.388;13.390;2023-07-20T06:48:58;12.73;;;9.12;;
56680;SDS011;42558;52.388;13.390;2023-07-20T06:51:30;18.81;;;11.97;;
56680;SDS011;42558;52.388;13.390;2023-07-20T06:54:01;13.49;;;10.83;;
56680;SDS011;42558;52.388;13.390;2023-07-20T06:56:31;13.30;;;10.83;;
56680;SDS011;42558;52.388;13.390;2023-07-20T06:59:02;11.40;;;8.55;;
56680;SDS011;42558;52.388;13.390;2023-07-20T07:01:32;10.26;;;8.55;;
56680;SDS011;42558;52.388;13.390;2023-07-20T07:04:02;10.64;;;7.03;;
56680;SDS011;42558;52.388;13.390;2023-07-20T07:06:33;11.40;;;6.27;;
56680;SDS011;42558;52.388;13.390;2023-07-20T07:09:03;8.36;;;5.70;;
56680;SDS011;42558;52.388;13.390;2023-07-20T07:11:33;7.79;;;4.94;;
56680;SDS011;42558;52.388;13.390;2023-07-20T07:14:03;8.93;;;4.75;;
56680;SDS011;42558;52.388;13.390;2023-07-20T07:16:33;9.69;;;4.56;;
56680;SDS011;42558;52.388;13.390;2023-07-20T07:19:08;7.60;;;5.13;;
56680;SDS011;42558;52.388;13.390;2023-07-20T07:21:38;8.36;;;4.94;;
56680;SDS011;42558;52.388;13.390;2023-07-20T07:24:08;7.60;;;4.75;;
56680;SDS011;42558;52.388;13.390;2023-07-20T07:26:39;7.98;;;4.94;;
56680;SDS011;42558;52.388;13.390;2023-07-20T07:29:09;10.07;;;4.75;;
56680;SDS011;42558;52.388;13.390;2023-07-20T07:31:39;9.88;;;4.94;;
56680;SDS011;42558;52.388;13.390;2023-07-20T07:34:09;9.12;;;5.51;;
56680;SDS011;42558;52.388;13.390;2023-07-20T07:36:39;8.74;;;4.37;;
56680;SDS011;42558;52.388;13.390;2023-07-20T07:39:09;6.46;;;3.61;;
56680;SDS011;42558;52.388;13.390;2023-07-20T07:41:42;9.12;;;3.42;;
56680;SDS011;42558;52.388;13.390;2023-07-20T07:44:12;5.89;;;2.85;;
56680;SDS011;42558;52.388;13.390;2023-07-20T07:46:42;7.22;;;3.04;;
56680;SDS011;42558;52.388;13.390;2023-07-20T07:49:12;5.70;;;3.04;;
56680;SDS011;42558;52.388;13.390;2023-07-20T07:51:42;6.27;;;3.23;;
56680;SDS011;42558;52.388;13.390;2023-07-20T07:54:12;6.65;;;2.66;;
56680;SDS011;42558;52.388;13.390;2023-07-20T07:56:42;6.27;;;2.66;;
56680;SDS011;42558;52.388;13.390;2023-07-20T07:59:13;6.46;;;2.47;;
56680;SDS011;42558;52.388;13.390;2023-07-20T08:01:43;5.89;;;3.04;;
56680;SDS011;42558;52.388;13.390;2023-07-20T08:04:13;6.46;;;2.85;;
56680;SDS011;42558;52.388;13.390;2023-07-20T08:06:44;9.69;;;2.28;;
56680;SDS011;42558;52.388;13.390;2023-07-20T08:09:14;5.70;;;2.47;;
56680;SDS011;42558;52.388;13.390;2023-07-20T08:11:44;6.08;;;2.66;;
56680;SDS011;42558;52.388;13.390;2023-07-20T08:14:14;5.70;;;2.47;;
56680;SDS011;42558;52.388;13.390;2023-07-20T08:16:44;5.13;;;2.28;;
56680;SDS011;42558;52.388;13.390;2023-07-20T08:19:15;5.13;;;2.47;;
56680;SDS011;42558;52.388;13.390;2023-07-20T08:21:45;7.03;;;2.28;;
56680;SDS011;42558;52.388;13.390;2023-07-20T08:24:15;5.51;;;2.47;;
56680;SDS011;42558;52.388;13.390;2023-07-20T08:26:45;7.22;;;2.85;;
56680;SDS011;42558;52.388;13.390;2023-07-20T08:29:15;7.03;;;2.66;;
56680;SDS011;42558;52.388;13.390;2023-07-20T08:31:45;7.03;;;2.09;;
56680;SDS011;42558;52.388;13.390;2023-07-20T08:34:15;8.36;;;2.28;;
56680;SDS011;42558;52.388;13.390;2023-07-20T08:37:00;5.32;;;2.47;;
56680;SDS011;42558;52.388;13.390;2023-07-20T08:39:28;4.94;;;2.09;;
56680;SDS011;42558;52.388;13.390;2023-07-20T08:41:59;5.13;;;1.90;;
56680;SDS011;42558;52.388;13.390;2023-07-20T08:44:33;5.89;;;2.09;;
56680;SDS011;42558;52.388;13.390;2023-07-20T08:47:06;6.08;;;2.66;;
56680;SDS011;42558;52.388;13.390;2023-07-20T08:49:37;5.32;;;2.09;;
56680;SDS011;42558;52.388;13.390;2023-07-20T08:52:10;6.27;;;2.28;;
56680;SDS011;42558;52.388;13.390;2023-07-20T08:54:41;5.89;;;1.90;;
56680;SDS011;42558;52.388;13.390;2023-07-20T08:57:13;4.94;;;1.90;;
56680;SDS011;42558;52.388;13.390;2023-07-20T08:59:46;4.37;;;1.71;;
56680;SDS011;42558;52.388;13.390;2023-07-20T09:02:17;5.32;;;2.09;;
56680;SDS011;42558;52.388;13.390;2023-07-20T09:04:49;6.65;;;2.28;;
56680;SDS011;42558;52.388;13.390;2023-07-20T09:07:18;4.94;;;2.28;;
56680;SDS011;42558;52.388;13.390;2023-07-20T09:09:49;4.75;;;1.71;;
56680;SDS011;42558;52.388;13.390;2023-07-20T09:12:19;5.32;;;2.28;;
56680;SDS011;42558;52.388;13.390;2023-07-20T09:14:49;5.51;;;2.09;;
56680;SDS011;42558;52.388;13.390;2023-07-20T09:17:19;6.84;;;2.47;;
56680;SDS011;42558;52.388;13.390;2023-07-20T09:19:49;7.22;;;2.28;;
56680;SDS011;42558;52.388;13.390;2023-07-20T09:22:19;5.32;;;2.09;;
56680;SDS011;42558;52.388;13.390;2023-07-20T09:24:52;5.32;;;2.09;;
56680;SDS011;42558;52.388;13.390;2023-07-20T09:27:22;6.08;;;2.28;;
56680;SDS011;42558;52.388;13.390;2023-07-20T09:29:59;5.70;;;2.09;;
56680;SDS011;42558;52.388;13.390;2023-07-20T09:32:29;5.89;;;2.28;;
56680;SDS011;42558;52.388;13.390;2023-07-20T09:35:03;6.65;;;2.28;;
56680;SDS011;42558;52.388;13.390;2023-07-20T09:37:37;5.51;;;2.47;;
56680;SDS011;42558;52.388;13.390;2023-07-20T09:40:07;7.22;;;2.28;;
56680;SDS011;42558;52.388;13.390;2023-07-20T09:42:41;5.13;;;2.09;;
56680;SDS011;42558;52.388;13.390;2023-07-20T09:45:35;6.84;;;2.28;;
56680;SDS011;42558;52.388;13.390;2023-07-20T09:48:26;5.51;;;2.28;;
56680;SDS011;42558;52.388;13.390;2023-07-20T09:50:59;6.27;;;2.28;;
56680;SDS011;42558;52.388;13.390;2023-07-20T09:53:32;6.08;;;2.66;;
56680;SDS011;42558;52.388;13.390;2023-07-20T09:56:03;5.13;;;2.09;;
56680;SDS011;42558;52.388;13.390;2023-07-20T09:58:34;7.03;;;2.28;;
56680;SDS011;42558;52.388;13.390;2023-07-20T10:01:04;5.89;;;2.09;;
56680;SDS011;42558;52.388;13.390;2023-07-20T10:03:37;6.65;;;1.90;;
56680;SDS011;42558;52.388;13.390;2023-07-20T10:06:09;4.75;;;1.90;;
56680;SDS011;42558;52.388;13.390;2023-07-20T10:08:42;5.89;;;2.09;;
56680;SDS011;42558;52.388;13.390;2023-07-20T10:11:17;5.51;;;1.90;;
56680;SDS011;42558;52.388;13.390;2023-07-20T10:13:53;5.13;;;2.09;;
56680;SDS011;42558;52.388;13.390;2023-07-20T10:16:31;6.27;;;1.90;;
56680;SDS011;42558;52.388;13.390;2023-07-20T10:19:10;4.75;;;2.09;;
56680;SDS011;42558;52.388;13.390;2023-07-20T10:21:48;4.75;;;1.90;;
56680;SDS011;42558;52.388;13.390;2023-07-20T10:24:27;5.32;;;2.09;;
56680;SDS011;42558;52.388;13.390;2023-07-20T10:26:58;4.75;;;1.90;;
56680;SDS011;42558;52.388;13.390;2023-07-20T10:29:29;4.56;;;1.90;;
56680;SDS011;42558;52.388;13.390;2023-07-20T10:32:00;6.08;;;1.90;;
56680;SDS011;42558;52.388;13.390;2023-07-20T10:34:31;6.65;;;2.09;;
56680;SDS011;42558;52.388;13.390;2023-07-20T10:37:01;6.46;;;1.71;;
56680;SDS011;42558;52.388;13.390;2023-07-20T10:39:32;13.49;;;2.28;;
56680;SDS011;42558;52.388;13.390;2023-07-20T10:42:06;6.46;;;1.90;;
56680;SDS011;42558;52.388;13.390;2023-07-20T10:44:39;6.65;;;1.71;;
56680;SDS011;42558;52.388;13.390;2023-07-20T10:47:11;5.13;;;2.09;;
56680;SDS011;42558;52.388;13.390;2023-07-20T10:50:01;6.65;;;2.09;;
56680;SDS011;42558;52.388;13.390;2023-07-20T10:52:41;5.89;;;1.90;;
56680;SDS011;42558;52.388;13.390;2023-07-20T10:55:14;6.27;;;2.28;;
56680;SDS011;42558;52.388;13.390;2023-07-20T10:58:06;5.32;;;1.90;;
56680;SDS011;42558;52.388;13.390;2023-07-20T11:01:17;5.32;;;1.90;;
56680;SDS011;42558;52.388;13.390;2023-07-20T11:03:49;5.32;;;1.52;;
56680;SDS011;42558;52.388;13.390;2023-07-20T11:09:15;6.27;;;2.09;;
56680;SDS011;42558;52.388;13.390;2023-07-20T11:11:47;5.13;;;1.71;;
56680;SDS011;42558;52.388;13.390;2023-07-20T11:14:25;5.70;;;1.52;;
56680;SDS011;42558;52.388;13.390;2023-07-20T11:17:11;5.32;;;1.71;;
56680;SDS011;42558;52.388;13.390;2023-07-20T11:19:42;6.46;;;1.90;;
56680;SDS011;42558;52.388;13.390;2023-07-20T11:22:19;4.75;;;1.52;;
56680;SDS011;42558;52.388;13.390;2023-07-20T11:24:50;4.56;;;1.90;;
56680;SDS011;42558;52.388;13.390;2023-07-20T11:27:20;4.37;;;1.52;;
56680;SDS011;42558;52.388;13.390;2023-07-20T11:29:52;4.56;;;1.71;;
56680;SDS011;42558;52.388;13.390;2023-07-20T11:32:23;5.13;;;1.71;;
56680;SDS011;42558;52.388;13.390;2023-07-20T11:34:54;5.13;;;1.90;;
56680;SDS011;42558;52.388;13.390;2023-07-20T11:37:22;5.89;;;1.90;;
56680;SDS011;42558;52.388;13.390;2023-07-20T11:39:56;7.41;;;2.28;;
56680;SDS011;42558;52.388;13.390;2023-07-20T11:42:26;5.32;;;1.90;;
56680;SDS011;42558;52.388;13.390;2023-07-20T11:45:02;5.32;;;1.90;;
56680;SDS011;42558;52.388;13.390;2023-07-20T11:47:40;5.70;;;2.28;;
56680;SDS011;42558;52.388;13.390;2023-07-20T11:50:11;4.75;;;1.90;;
56680;SDS011;42558;52.388;13.390;2023-07-20T11:52:44;8.93;;;1.90;;
56680;SDS011;42558;52.388;13.390;2023-07-20T11:55:14;5.13;;;1.90;;
56680;SDS011;42558;52.388;13.390;2023-07-20T11:58:01;6.65;;;2.28;;
56680;SDS011;42558;52.388;13.390;2023-07-20T12:00:35;6.84;;;2.09;;
56680;SDS011;42558;52.388;13.390;2023-07-20T12:03:07;5.89;;;1.90;;
56680;SDS011;42558;52.388;13.390;2023-07-20T12:05:38;4.56;;;1.71;;
56680;SDS011;42558;52.388;13.390;2023-07-20T12:08:28;5.70;;;2.09;;
56680;SDS011;42558;52.388;13.390;2023-07-20T12:10:58;4.75;;;1.71;;
56680;SDS011;42558;52.388;13.390;2023-07-20T12:13:42;4.94;;;2.09;;
56680;SDS011;42558;52.388;13.390;2023-07-20T12:16:15;5.89;;;1.71;;
56680;SDS011;42558;52.388;13.390;2023-07-20T12:18:46;6.46;;;2.09;;
56680;SDS011;42558;52.388;13.390;2023-07-20T12:21:19;5.70;;;1.71;;
56680;SDS011;42558;52.388;13.390;2023-07-20T12:23:49;5.32;;;2.09;;
56680;SDS011;42558;52.388;13.390;2023-07-20T12:26:19;5.51;;;1.90;;
56680;SDS011;42558;52.388;13.390;2023-07-20T12:28:52;5.89;;;1.90;;
56680;SDS011;42558;52.388;13.390;2023-07-20T12:31:22;5.51;;;1.71;;
56680;SDS011;42558;52.388;13.390;2023-07-20T12:33:54;4.94;;;1.90;;
56680;SDS011;42558;52.388;13.390;2023-07-20T12:36:26;5.13;;;1.71;;
56680;SDS011;42558;52.388;13.390;2023-07-20T12:38:56;6.27;;;1.71;;
56680;SDS011;42558;52.388;13.390;2023-07-20T12:41:27;5.89;;;1.52;;
56680;SDS011;42558;52.388;13.390;2023-07-20T12:43:58;5.13;;;1.71;;
56680;SDS011;42558;52.388;13.390;2023-07-20T12:46:28;4.56;;;1.52;;
56680;SDS011;42558;52.388;13.390;2023-07-20T12:48:58;4.37;;;1.52;;
56680;SDS011;42558;52.388;13.390;2023-07-20T12:51:28;5.13;;;1.52;;
56680;SDS011;42558;52.388;13.390;2023-07-20T12:53:58;4.75;;;1.90;;
56680;SDS011;42558;52.388;13.390;2023-07-20T12:56:28;5.89;;;1.52;;
56680;SDS011;42558;52.388;13.390;2023-07-20T12:58:59;4.56;;;1.33;;
56680;SDS011;42558;52.388;13.390;2023-07-20T13:01:31;4.37;;;1.52;;
56680;SDS011;42558;52.388;13.390;2023-07-20T13:03:59;4.94;;;1.33;;
56680;SDS011;42558;52.388;13.390;2023-07-20T13:06:32;5.32;;;1.33;;
56680;SDS011;42558;52.388;13.390;2023-07-20T13:09:05;4.37;;;1.33;;
56680;SDS011;42558;52.388;13.390;2023-07-20T13:11:35;4.75;;;1.71;;
56680;SDS011;42558;52.388;13.390;2023-07-20T13:14:05;6.46;;;1.52;;
56680;SDS011;42558;52.388;13.390;2023-07-20T13:16:35;5.32;;;1.52;;
56680;SDS011;42558;52.388;13.390;2023-07-20T13:19:05;4.75;;;1.52;;
56680;SDS011;42558;52.388;13.390;2023-07-20T13:21:35;6.65;;;1.52;;
56680;SDS011;42558;52.388;13.390;2023-07-20T13:24:06;5.51;;;1.71;;
56680;SDS011;42558;52.388;13.390;2023-07-20T13:26:36;4.94;;;2.09;;
56680;SDS011;42558;52.388;13.390;2023-07-20T13:29:06;5.32;;;1.52;;
56680;SDS011;42558;52.388;13.390;2023-07-20T13:31:36;4.75;;;1.52;;
56680;SDS011;42558;52.388;13.390;2023-07-20T13:34:10;5.51;;;1.71;;
56680;SDS011;42558;52.388;13.390;2023-07-20T13:36:40;6.27;;;1.90;;
56680;SDS011;42558;52.388;13.390;2023-07-20T13:39:12;5.13;;;1.52;;
56680;SDS011;42558;52.388;13.390;2023-07-20T13:41:42;4.94;;;1.71;;
56680;SDS011;42558;52.388;13.390;2023-07-20T13:44:12;5.70;;;1.33;;
56680;SDS011;42558;52.388;13.390;2023-07-20T13:46:49;4.56;;;1.52;;
56680;SDS011;42558;52.388;13.390;2023-07-20T13:49:17;4.75;;;1.52;;
56680;SDS011;42558;52.388;13.390;2023-07-20T13:51:52;4.37;;;1.52;;
56680;SDS011;42558;52.388;13.390;2023-07-20T13:54:25;5.70;;;1.52;;
56680;SDS011;42558;52.388;13.390;2023-07-20T13:56:56;5.13;;;1.90;;
56680;SDS011;42558;52.388;13.390;2023-07-20T13:59:24;6.08;;;1.71;;
56680;SDS011;42558;52.388;13.390;2023-07-20T14:01:53;4.75;;;1.71;;
56680;SDS011;42558;52.388;13.390;2023-07-20T14:04:43;4.56;;;1.71;;
56680;SDS011;42558;52.388;13.390;2023-07-20T14:07:13;4.94;;;1.52;;
56680;SDS011;42558;52.388;13.390;2023-07-20T14:09:45;6.65;;;1.71;;
56680;SDS011;42558;52.388;13.390;2023-07-20T14:12:17;4.75;;;1.52;;
56680;SDS011;42558;52.388;13.390;2023-07-20T14:14:48;5.89;;;1.52;;
56680;SDS011;42558;52.388;13.390;2023-07-20T14:17:18;5.32;;;1.71;;
56680;SDS011;42558;52.388;13.390;2023-07-20T14:19:48;5.51;;;1.71;;
56680;SDS011;42558;52.388;13.390;2023-07-20T14:22:19;6.08;;;1.52;;
56680;SDS011;42558;52.388;13.390;2023-07-20T14:24:49;4.94;;;1.71;;
56680;SDS011;42558;52.388;13.390;2023-07-20T14:27:19;5.32;;;2.09;;
56680;SDS011;42558;52.388;13.390;2023-07-20T14:29:49;5.70;;;1.52;;
56680;SDS011;42558;52.388;13.390;2023-07-20T14:32:19;5.51;;;1.71;;
56680;SDS011;42558;52.388;13.390;2023-07-20T14:34:49;4.37;;;1.33;;
56680;SDS011;42558;52.388;13.390;2023-07-20T14:37:19;4.94;;;1.52;;
56680;SDS011;42558;52.388;13.390;2023-07-20T14:39:50;4.75;;;1.33;;
56680;SDS011;42558;52.388;13.390;2023-07-20T14:42:21;4.75;;;1.90;;
56680;SDS011;42558;52.388;13.390;2023-07-20T14:44:51;7.03;;;1.52;;
56680;SDS011;42558;52.388;13.390;2023-07-20T14:47:21;5.32;;;1.90;;
56680;SDS011;42558;52.388;13.390;2023-07-20T14:49:51;4.94;;;1.90;;
56680;SDS011;42558;52.388;13.390;2023-07-20T14:52:21;5.32;;;1.71;;
56680;SDS011;42558;52.388;13.390;2023-07-20T14:54:51;5.13;;;1.71;;
56680;SDS011;42558;52.388;13.390;2023-07-20T14:57:21;4.37;;;1.52;;
56680;SDS011;42558;52.388;13.390;2023-07-20T14:59:52;4.75;;;1.90;;